sensor_id;sensor_type;location;lat;lon;timestamp;temperature;humidity
37108;DHT22;23019;49.300;6.846;2022-11-13T00:00:36;21.50;99.90
37108;DHT22;23019;49.300;6.846;2022-11-13T00:02:55;21.50;99.90
37108;DHT22;23019;49.300;6.846;2022-11-13T00:05:17;21.40;99.90
37108;DHT22;23019;49.300;6.846;2022-11-13T00:07:36;21.40;99.90
37108;DHT22;23019;49.300;6.846;2022-11-13T00:09:55;21.40;99.90
37108;DHT22;23019;49.300;6.846;2022-11-13T00:12:14;21.30;99.90
37108;DHT22;23019;49.300;6.846;2022-11-13T00:14:33;21.30;99.90
37108;DHT22;23019;49.300;6.846;2022-11-13T00:16:52;21.20;99.90
37108;DHT22;23019;49.300;6.846;2022-11-13T00:19:11;21.20;99.90
37108;DHT22;23019;49.300;6.846;2022-11-13T00:21:30;21.10;99.90
37108;DHT22;23019;49.300;6.846;2022-11-13T00:23:50;21.10;99.90
37108;DHT22;23019;49.300;6.846;2022-11-13T00:26:13;21.00;99.90
37108;DHT22;23019;49.300;6.846;2022-11-13T00:28:32;21.00;99.90
37108;DHT22;23019;49.300;6.846;2022-11-13T00:30:57;21.00;99.90
37108;DHT22;23019;49.300;6.846;2022-11-13T00:33:17;20.90;99.90
37108;DHT22;23019;49.300;6.846;2022-11-13T00:35:36;20.90;99.90
37108;DHT22;23019;49.300;6.846;2022-11-13T00:37:58;25.10;99.90
37108;DHT22;23019;49.300;6.846;2022-11-13T00:40:17;34.30;99.90
37108;DHT22;23019;49.300;6.846;2022-11-13T00:42:36;41.70;99.90
37108;DHT22;23019;49.300;6.846;2022-11-13T00:44:55;41.30;99.90
37108;DHT22;23019;49.300;6.846;2022-11-13T00:47:17;40.00;99.90
37108;DHT22;23019;49.300;6.846;2022-11-13T00:49:36;39.70;99.90
37108;DHT22;23019;49.300;6.846;2022-11-13T00:51:55;39.50;99.90
37108;DHT22;23019;49.300;6.846;2022-11-13T00:54:14;39.10;99.90
37108;DHT22;23019;49.300;6.846;2022-11-13T00:56:34;38.70;99.90
37108;DHT22;23019;49.300;6.846;2022-11-13T00:58:53;38.30;99.90
37108;DHT22;23019;49.300;6.846;2022-11-13T01:01:15;37.90;99.90
37108;DHT22;23019;49.300;6.846;2022-11-13T01:03:35;37.40;99.90
37108;DHT22;23019;49.300;6.846;2022-11-13T01:05:54;37.10;99.90
37108;DHT22;23019;49.300;6.846;2022-11-13T01:08:14;36.60;99.90
37108;DHT22;23019;49.300;6.846;2022-11-13T01:10:44;36.20;99.90
37108;DHT22;23019;49.300;6.846;2022-11-13T01:13:04;35.80;99.90
37108;DHT22;23019;49.300;6.846;2022-11-13T01:15:23;35.40;99.90
37108;DHT22;23019;49.300;6.846;2022-11-13T01:17:43;35.00;99.90
37108;DHT22;23019;49.300;6.846;2022-11-13T01:20:03;34.60;99.90
37108;DHT22;23019;49.300;6.846;2022-11-13T01:22:22;34.30;99.90
37108;DHT22;23019;49.300;6.846;2022-11-13T01:24:41;33.90;99.90
37108;DHT22;23019;49.300;6.846;2022-11-13T01:27:01;33.50;99.90
37108;DHT22;23019;49.300;6.846;2022-11-13T01:29:20;33.20;99.90
37108;DHT22;23019;49.300;6.846;2022-11-13T01:31:39;32.90;99.90
37108;DHT22;23019;49.300;6.846;2022-11-13T01:33:58;32.60;99.90
37108;DHT22;23019;49.300;6.846;2022-11-13T01:36:24;32.30;99.90
37108;DHT22;23019;49.300;6.846;2022-11-13T01:38:44;32.00;99.90
37108;DHT22;23019;49.300;6.846;2022-11-13T01:41:05;31.70;99.90
37108;DHT22;23019;49.300;6.846;2022-11-13T01:43:30;31.40;99.90
37108;DHT22;23019;49.300;6.846;2022-11-13T01:48:18;30.90;99.90
37108;DHT22;23019;49.300;6.846;2022-11-13T01:50:37;30.60;99.90
37108;DHT22;23019;49.300;6.846;2022-11-13T01:52:57;30.40;99.90
37108;DHT22;23019;49.300;6.846;2022-11-13T01:55:18;30.10;99.90
37108;DHT22;23019;49.300;6.846;2022-11-13T01:57:38;29.90;99.90
37108;DHT22;23019;49.300;6.846;2022-11-13T02:00:00;29.60;99.90
37108;DHT22;23019;49.300;6.846;2022-11-13T02:02:22;29.40;99.90
37108;DHT22;23019;49.300;6.846;2022-11-13T02:04:42;29.20;99.90
37108;DHT22;23019;49.300;6.846;2022-11-13T02:07:04;29.00;99.90
37108;DHT22;23019;49.300;6.846;2022-11-13T02:09:26;28.80;99.90
37108;DHT22;23019;49.300;6.846;2022-11-13T02:11:47;28.60;99.90
37108;DHT22;23019;49.300;6.846;2022-11-13T02:14:07;28.40;99.90
37108;DHT22;23019;49.300;6.846;2022-11-13T02:16:29;28.20;99.90
37108;DHT22;23019;49.300;6.846;2022-11-13T02:18:50;28.00;99.90
37108;DHT22;23019;49.300;6.846;2022-11-13T02:23:59;27.60;99.90
37108;DHT22;23019;49.300;6.846;2022-11-13T02:26:21;27.40;99.90
37108;DHT22;23019;49.300;6.846;2022-11-13T02:28:43;27.30;99.90
37108;DHT22;23019;49.300;6.846;2022-11-13T02:31:10;27.10;99.90
37108;DHT22;23019;49.300;6.846;2022-11-13T02:33:31;26.90;99.90
37108;DHT22;23019;49.300;6.846;2022-11-13T02:35:51;26.80;99.90
37108;DHT22;23019;49.300;6.846;2022-11-13T02:38:10;26.60;99.90
37108;DHT22;23019;49.300;6.846;2022-11-13T02:40:30;26.50;99.90
37108;DHT22;23019;49.300;6.846;2022-11-13T02:42:50;26.30;99.90
37108;DHT22;23019;49.300;6.846;2022-11-13T02:45:09;26.20;99.90
37108;DHT22;23019;49.300;6.846;2022-11-13T02:47:28;26.00;99.90
37108;DHT22;23019;49.300;6.846;2022-11-13T02:49:47;25.90;99.90
37108;DHT22;23019;49.300;6.846;2022-11-13T02:52:06;25.80;99.90
37108;DHT22;23019;49.300;6.846;2022-11-13T02:54:26;25.70;99.90
37108;DHT22;23019;49.300;6.846;2022-11-13T02:56:45;25.50;99.90
37108;DHT22;23019;49.300;6.846;2022-11-13T02:59:04;25.40;99.90
37108;DHT22;23019;49.300;6.846;2022-11-13T03:01:26;25.30;99.90
37108;DHT22;23019;49.300;6.846;2022-11-13T03:03:47;25.20;99.90
37108;DHT22;23019;49.300;6.846;2022-11-13T03:06:07;25.10;99.90
37108;DHT22;23019;49.300;6.846;2022-11-13T03:08:26;25.00;99.90
37108;DHT22;23019;49.300;6.846;2022-11-13T03:10:46;24.80;99.90
37108;DHT22;23019;49.300;6.846;2022-11-13T03:13:05;24.70;99.90
37108;DHT22;23019;49.300;6.846;2022-11-13T03:15:24;24.60;99.90
37108;DHT22;23019;49.300;6.846;2022-11-13T03:17:43;24.50;99.90
37108;DHT22;23019;49.300;6.846;2022-11-13T03:20:03;24.40;99.90
37108;DHT22;23019;49.300;6.846;2022-11-13T03:22:22;24.30;99.90
37108;DHT22;23019;49.300;6.846;2022-11-13T03:24:41;24.20;99.90
37108;DHT22;23019;49.300;6.846;2022-11-13T03:27:00;24.10;99.90
37108;DHT22;23019;49.300;6.846;2022-11-13T03:29:20;24.00;99.90
37108;DHT22;23019;49.300;6.846;2022-11-13T03:31:39;23.90;99.90
37108;DHT22;23019;49.300;6.846;2022-11-13T03:33:58;23.80;99.90
37108;DHT22;23019;49.300;6.846;2022-11-13T03:36:18;23.70;99.90
37108;DHT22;23019;49.300;6.846;2022-11-13T03:38:37;23.60;99.90
37108;DHT22;23019;49.300;6.846;2022-11-13T03:40:56;23.50;99.90
37108;DHT22;23019;49.300;6.846;2022-11-13T03:43:16;23.40;99.90
37108;DHT22;23019;49.300;6.846;2022-11-13T03:45:35;23.30;99.90
37108;DHT22;23019;49.300;6.846;2022-11-13T03:47:54;23.20;99.90
37108;DHT22;23019;49.300;6.846;2022-11-13T03:50:14;23.10;99.90
37108;DHT22;23019;49.300;6.846;2022-11-13T03:52:33;23.00;99.90
37108;DHT22;23019;49.300;6.846;2022-11-13T03:54:52;23.00;99.90
37108;DHT22;23019;49.300;6.846;2022-11-13T03:57:11;22.90;99.90
37108;DHT22;23019;49.300;6.846;2022-11-13T03:59:31;22.80;99.90
37108;DHT22;23019;49.300;6.846;2022-11-13T04:01:50;22.70;99.90
37108;DHT22;23019;49.300;6.846;2022-11-13T04:04:09;22.60;99.90
37108;DHT22;23019;49.300;6.846;2022-11-13T04:06:28;22.60;99.90
37108;DHT22;23019;49.300;6.846;2022-11-13T04:08:47;22.50;99.90
37108;DHT22;23019;49.300;6.846;2022-11-13T04:11:11;22.40;99.90
37108;DHT22;23019;49.300;6.846;2022-11-13T04:13:30;22.30;99.90
37108;DHT22;23019;49.300;6.846;2022-11-13T04:15:49;22.30;99.90
37108;DHT22;23019;49.300;6.846;2022-11-13T04:18:11;22.20;99.90
37108;DHT22;23019;49.300;6.846;2022-11-13T04:20:30;22.10;99.90
37108;DHT22;23019;49.300;6.846;2022-11-13T04:22:50;22.10;99.90
37108;DHT22;23019;49.300;6.846;2022-11-13T04:25:09;22.00;99.90
37108;DHT22;23019;49.300;6.846;2022-11-13T04:27:28;22.00;99.90
37108;DHT22;23019;49.300;6.846;2022-11-13T04:29:47;21.90;99.90
37108;DHT22;23019;49.300;6.846;2022-11-13T04:32:06;23.30;99.90
37108;DHT22;23019;49.300;6.846;2022-11-13T04:34:25;31.10;99.90
37108;DHT22;23019;49.300;6.846;2022-11-13T04:36:45;39.60;99.90
37108;DHT22;23019;49.300;6.846;2022-11-13T04:39:04;41.80;99.90
37108;DHT22;23019;49.300;6.846;2022-11-13T04:41:23;40.10;99.90
37108;DHT22;23019;49.300;6.846;2022-11-13T04:44:01;39.70;99.90
37108;DHT22;23019;49.300;6.846;2022-11-13T04:46:23;39.40;99.90
37108;DHT22;23019;49.300;6.846;2022-11-13T04:48:42;39.10;99.90
37108;DHT22;23019;49.300;6.846;2022-11-13T04:51:01;38.70;99.90
37108;DHT22;23019;49.300;6.846;2022-11-13T04:53:20;38.30;99.90
37108;DHT22;23019;49.300;6.846;2022-11-13T04:55:39;37.80;99.90
37108;DHT22;23019;49.300;6.846;2022-11-13T04:57:58;37.50;99.90
37108;DHT22;23019;49.300;6.846;2022-11-13T05:00:17;37.10;99.90
37108;DHT22;23019;49.300;6.846;2022-11-13T05:02:36;36.60;99.90
37108;DHT22;23019;49.300;6.846;2022-11-13T05:04:55;36.20;99.90
37108;DHT22;23019;49.300;6.846;2022-11-13T05:07:15;35.80;99.90
37108;DHT22;23019;49.300;6.846;2022-11-13T05:09:34;35.40;99.90
37108;DHT22;23019;49.300;6.846;2022-11-13T05:11:53;35.00;99.90
37108;DHT22;23019;49.300;6.846;2022-11-13T05:14:12;34.60;99.90
37108;DHT22;23019;49.300;6.846;2022-11-13T05:16:34;34.20;99.90
37108;DHT22;23019;49.300;6.846;2022-11-13T05:18:54;33.90;99.90
37108;DHT22;23019;49.300;6.846;2022-11-13T05:21:15;33.50;99.90
37108;DHT22;23019;49.300;6.846;2022-11-13T05:23:34;33.20;99.90
37108;DHT22;23019;49.300;6.846;2022-11-13T05:26:04;32.90;99.90
37108;DHT22;23019;49.300;6.846;2022-11-13T05:28:25;32.60;99.90
37108;DHT22;23019;49.300;6.846;2022-11-13T05:30:44;33.70;99.90
37108;DHT22;23019;49.300;6.846;2022-11-13T05:33:03;41.00;99.90
37108;DHT22;23019;49.300;6.846;2022-11-13T05:35:23;42.80;99.90
37108;DHT22;23019;49.300;6.846;2022-11-13T05:37:42;41.10;99.90
37108;DHT22;23019;49.300;6.846;2022-11-13T05:40:00;40.20;99.90
37108;DHT22;23019;49.300;6.846;2022-11-13T05:42:23;39.90;99.90
37108;DHT22;23019;49.300;6.846;2022-11-13T05:44:42;39.60;99.90
37108;DHT22;23019;49.300;6.846;2022-11-13T05:47:01;39.20;99.90
37108;DHT22;23019;49.300;6.846;2022-11-13T05:49:20;38.90;99.90
37108;DHT22;23019;49.300;6.846;2022-11-13T05:51:39;38.40;99.90
37108;DHT22;23019;49.300;6.846;2022-11-13T05:53:59;38.00;99.90
37108;DHT22;23019;49.300;6.846;2022-11-13T05:56:21;37.60;99.90
37108;DHT22;23019;49.300;6.846;2022-11-13T05:58:42;37.20;99.90
37108;DHT22;23019;49.300;6.846;2022-11-13T06:01:19;36.80;99.90
37108;DHT22;23019;49.300;6.846;2022-11-13T06:03:39;36.30;99.90
37108;DHT22;23019;49.300;6.846;2022-11-13T06:05:58;35.90;99.90
37108;DHT22;23019;49.300;6.846;2022-11-13T06:08:17;35.50;99.90
37108;DHT22;23019;49.300;6.846;2022-11-13T06:10:37;35.20;99.90
37108;DHT22;23019;49.300;6.846;2022-11-13T06:12:56;34.80;99.90
37108;DHT22;23019;49.300;6.846;2022-11-13T06:15:15;34.40;99.90
37108;DHT22;23019;49.300;6.846;2022-11-13T06:17:34;34.10;99.90
37108;DHT22;23019;49.300;6.846;2022-11-13T06:19:53;33.80;99.90
37108;DHT22;23019;49.300;6.846;2022-11-13T06:22:12;33.40;99.90
37108;DHT22;23019;49.300;6.846;2022-11-13T06:24:31;33.20;99.90
37108;DHT22;23019;49.300;6.846;2022-11-13T06:26:50;38.00;99.90
37108;DHT22;23019;49.300;6.846;2022-11-13T06:29:12;43.30;99.90
37108;DHT22;23019;49.300;6.846;2022-11-13T06:31:33;42.20;99.90
37108;DHT22;23019;49.300;6.846;2022-11-13T06:33:53;40.70;99.90
37108;DHT22;23019;49.300;6.846;2022-11-13T06:36:16;40.00;99.90
37108;DHT22;23019;49.300;6.846;2022-11-13T06:38:37;39.60;99.90
37108;DHT22;23019;49.300;6.846;2022-11-13T06:40:56;39.30;99.90
37108;DHT22;23019;49.300;6.846;2022-11-13T06:43:16;39.00;99.90
37108;DHT22;23019;49.300;6.846;2022-11-13T06:45:37;38.50;99.90
37108;DHT22;23019;49.300;6.846;2022-11-13T06:47:57;38.10;99.90
37108;DHT22;23019;49.300;6.846;2022-11-13T06:50:16;37.60;99.90
37108;DHT22;23019;49.300;6.846;2022-11-13T06:52:35;37.20;99.90
37108;DHT22;23019;49.300;6.846;2022-11-13T06:54:54;36.70;99.90
37108;DHT22;23019;49.300;6.846;2022-11-13T06:57:13;36.30;99.90
37108;DHT22;23019;49.300;6.846;2022-11-13T06:59:32;35.90;99.90
37108;DHT22;23019;49.300;6.846;2022-11-13T07:01:51;35.40;99.90
37108;DHT22;23019;49.300;6.846;2022-11-13T07:04:11;35.00;99.90
37108;DHT22;23019;49.300;6.846;2022-11-13T07:06:31;34.60;99.90
37108;DHT22;23019;49.300;6.846;2022-11-13T07:08:51;33.50;99.90
37108;DHT22;23019;49.300;6.846;2022-11-13T07:11:12;31.60;99.90
37108;DHT22;23019;49.300;6.846;2022-11-13T07:13:32;35.20;99.90
37108;DHT22;23019;49.300;6.846;2022-11-13T07:15:52;41.30;99.90
37108;DHT22;23019;49.300;6.846;2022-11-13T07:18:11;40.40;99.90
37108;DHT22;23019;49.300;6.846;2022-11-13T07:20:32;39.40;99.90
37108;DHT22;23019;49.300;6.846;2022-11-13T07:22:54;38.90;99.90
37108;DHT22;23019;49.300;6.846;2022-11-13T07:25:14;38.60;99.90
37108;DHT22;23019;49.300;6.846;2022-11-13T07:27:33;38.10;99.90
37108;DHT22;23019;49.300;6.846;2022-11-13T07:29:52;37.60;99.90
37108;DHT22;23019;49.300;6.846;2022-11-13T07:32:11;37.20;99.90
37108;DHT22;23019;49.300;6.846;2022-11-13T07:34:30;36.70;99.90
37108;DHT22;23019;49.300;6.846;2022-11-13T07:36:49;36.20;99.90
37108;DHT22;23019;49.300;6.846;2022-11-13T07:39:08;35.70;99.90
37108;DHT22;23019;49.300;6.846;2022-11-13T07:41:27;35.30;99.90
37108;DHT22;23019;49.300;6.846;2022-11-13T07:43:46;34.80;99.90
37108;DHT22;23019;49.300;6.846;2022-11-13T07:46:05;34.40;99.90
37108;DHT22;23019;49.300;6.846;2022-11-13T07:48:25;34.00;99.90
37108;DHT22;23019;49.300;6.846;2022-11-13T07:50:45;33.60;99.90
37108;DHT22;23019;49.300;6.846;2022-11-13T07:53:10;35.10;99.90
37108;DHT22;23019;49.300;6.846;2022-11-13T07:55:32;41.50;99.90
37108;DHT22;23019;49.300;6.846;2022-11-13T07:57:55;41.10;99.90
37108;DHT22;23019;49.300;6.846;2022-11-13T08:00:15;39.90;99.90
37108;DHT22;23019;49.300;6.846;2022-11-13T08:02:38;39.40;99.90
37108;DHT22;23019;49.300;6.846;2022-11-13T08:04:57;38.90;99.90
37108;DHT22;23019;49.300;6.846;2022-11-13T08:07:16;38.50;99.90
37108;DHT22;23019;49.300;6.846;2022-11-13T08:09:36;38.00;99.90
37108;DHT22;23019;49.300;6.846;2022-11-13T08:11:55;37.60;99.90
37108;DHT22;23019;49.300;6.846;2022-11-13T08:14:17;37.10;99.90
37108;DHT22;23019;49.300;6.846;2022-11-13T08:16:36;36.60;99.90
37108;DHT22;23019;49.300;6.846;2022-11-13T08:18:56;36.20;99.90
37108;DHT22;23019;49.300;6.846;2022-11-13T08:21:15;35.70;99.90
37108;DHT22;23019;49.300;6.846;2022-11-13T08:23:34;35.30;99.90
37108;DHT22;23019;49.300;6.846;2022-11-13T08:25:53;34.80;99.90
37108;DHT22;23019;49.300;6.846;2022-11-13T08:28:12;34.40;99.90
37108;DHT22;23019;49.300;6.846;2022-11-13T08:30:31;34.00;99.90
37108;DHT22;23019;49.300;6.846;2022-11-13T08:32:51;33.60;99.90
37108;DHT22;23019;49.300;6.846;2022-11-13T08:35:10;33.20;99.90
37108;DHT22;23019;49.300;6.846;2022-11-13T08:37:29;32.80;99.90
37108;DHT22;23019;49.300;6.846;2022-11-13T08:39:50;33.80;99.90
37108;DHT22;23019;49.300;6.846;2022-11-13T08:42:09;35.50;99.90
37108;DHT22;23019;49.300;6.846;2022-11-13T08:44:29;39.60;99.90
37108;DHT22;23019;49.300;6.846;2022-11-13T08:46:48;48.80;99.90
37108;DHT22;23019;49.300;6.846;2022-11-13T08:49:07;55.90;99.90
37108;DHT22;23019;49.300;6.846;2022-11-13T08:51:27;56.70;99.90
37108;DHT22;23019;49.300;6.846;2022-11-13T08:53:48;55.00;99.90
37108;DHT22;23019;49.300;6.846;2022-11-13T08:56:08;52.80;99.90
37108;DHT22;23019;49.300;6.846;2022-11-13T08:58:27;51.40;99.90
37108;DHT22;23019;49.300;6.846;2022-11-13T09:00:46;54.00;99.90
37108;DHT22;23019;49.300;6.846;2022-11-13T09:03:05;57.00;99.90
37108;DHT22;23019;49.300;6.846;2022-11-13T09:05:25;56.80;99.90
37108;DHT22;23019;49.300;6.846;2022-11-13T09:07:47;55.30;99.90
37108;DHT22;23019;49.300;6.846;2022-11-13T09:10:07;53.60;99.90
37108;DHT22;23019;49.300;6.846;2022-11-13T09:12:26;52.30;99.90
37108;DHT22;23019;49.300;6.846;2022-11-13T09:14:45;51.40;99.90
37108;DHT22;23019;49.300;6.846;2022-11-13T09:17:04;53.90;99.90
37108;DHT22;23019;49.300;6.846;2022-11-13T09:19:23;57.10;99.90
37108;DHT22;23019;49.300;6.846;2022-11-13T09:21:43;57.10;99.90
37108;DHT22;23019;49.300;6.846;2022-11-13T09:24:02;56.20;99.90
37108;DHT22;23019;49.300;6.846;2022-11-13T09:26:22;49.30;99.90
37108;DHT22;23019;49.300;6.846;2022-11-13T09:28:41;44.60;99.90
37108;DHT22;23019;49.300;6.846;2022-11-13T09:31:04;43.40;99.90
37108;DHT22;23019;49.300;6.846;2022-11-13T09:33:24;42.80;99.90
37108;DHT22;23019;49.300;6.846;2022-11-13T09:35:43;42.30;99.90
37108;DHT22;23019;49.300;6.846;2022-11-13T09:38:08;41.70;99.90
37108;DHT22;23019;49.300;6.846;2022-11-13T09:40:32;41.20;99.90
37108;DHT22;23019;49.300;6.846;2022-11-13T09:42:58;40.60;99.90
37108;DHT22;23019;49.300;6.846;2022-11-13T09:45:19;40.00;99.90
37108;DHT22;23019;49.300;6.846;2022-11-13T09:47:45;39.40;99.90
37108;DHT22;23019;49.300;6.846;2022-11-13T09:50:16;38.80;99.90
37108;DHT22;23019;49.300;6.846;2022-11-13T09:52:40;38.30;99.90
37108;DHT22;23019;49.300;6.846;2022-11-13T09:55:01;37.70;99.90
37108;DHT22;23019;49.300;6.846;2022-11-13T09:57:50;37.20;99.90
37108;DHT22;23019;49.300;6.846;2022-11-13T10:00:14;36.60;99.90
37108;DHT22;23019;49.300;6.846;2022-11-13T10:02:56;36.20;99.90
37108;DHT22;23019;49.300;6.846;2022-11-13T10:13:01;34.40;99.90
37108;DHT22;23019;49.300;6.846;2022-11-13T10:15:21;34.00;99.90
37108;DHT22;23019;49.300;6.846;2022-11-13T10:17:47;33.60;99.90
37108;DHT22;23019;49.300;6.846;2022-11-13T10:20:31;33.30;99.90
37108;DHT22;23019;49.300;6.846;2022-11-13T10:23:21;32.80;99.90
37108;DHT22;23019;49.300;6.846;2022-11-13T10:25:39;32.40;99.90
37108;DHT22;23019;49.300;6.846;2022-11-13T10:28:01;32.00;99.90
37108;DHT22;23019;49.300;6.846;2022-11-13T10:30:20;31.70;99.90
37108;DHT22;23019;49.300;6.846;2022-11-13T10:32:39;31.40;99.90
37108;DHT22;23019;49.300;6.846;2022-11-13T10:35:08;31.10;99.90
37108;DHT22;23019;49.300;6.846;2022-11-13T10:40:02;30.40;99.90
37108;DHT22;23019;49.300;6.846;2022-11-13T10:42:27;30.10;99.90
37108;DHT22;23019;49.300;6.846;2022-11-13T10:44:57;29.90;99.90
37108;DHT22;23019;49.300;6.846;2022-11-13T10:47:19;30.70;99.90
37108;DHT22;23019;49.300;6.846;2022-11-13T10:49:38;38.50;99.90
37108;DHT22;23019;49.300;6.846;2022-11-13T10:51:59;42.80;99.90
37108;DHT22;23019;49.300;6.846;2022-11-13T10:54:27;40.00;99.90
37108;DHT22;23019;49.300;6.846;2022-11-13T10:56:56;37.70;99.90
37108;DHT22;23019;49.300;6.846;2022-11-13T10:59:19;36.90;99.90
37108;DHT22;23019;49.300;6.846;2022-11-13T11:01:40;36.70;99.90
37108;DHT22;23019;49.300;6.846;2022-11-13T11:04:02;36.50;99.90
37108;DHT22;23019;49.300;6.846;2022-11-13T11:06:31;36.10;99.90
37108;DHT22;23019;49.300;6.846;2022-11-13T11:08:51;35.70;99.90
37108;DHT22;23019;49.300;6.846;2022-11-13T11:11:15;35.40;99.90
37108;DHT22;23019;49.300;6.846;2022-11-13T11:14:11;35.00;99.90
37108;DHT22;23019;49.300;6.846;2022-11-13T11:16:34;34.50;99.90
37108;DHT22;23019;49.300;6.846;2022-11-13T11:19:00;34.10;99.90
37108;DHT22;23019;49.300;6.846;2022-11-13T11:21:25;33.70;99.90
37108;DHT22;23019;49.300;6.846;2022-11-13T11:27:20;33.00;99.90
37108;DHT22;23019;49.300;6.846;2022-11-13T11:29:50;32.50;99.90
37108;DHT22;23019;49.300;6.846;2022-11-13T11:35:15;31.80;99.90
37108;DHT22;23019;49.300;6.846;2022-11-13T11:37:40;31.40;99.90
37108;DHT22;23019;49.300;6.846;2022-11-13T11:40:32;31.10;99.90
37108;DHT22;23019;49.300;6.846;2022-11-13T11:45:43;30.40;99.90
37108;DHT22;23019;49.300;6.846;2022-11-13T11:48:12;30.10;99.90
37108;DHT22;23019;49.300;6.846;2022-11-13T11:50:40;29.90;99.90
37108;DHT22;23019;49.300;6.846;2022-11-13T11:53:21;29.60;99.90
37108;DHT22;23019;49.300;6.846;2022-11-13T11:58:46;29.00;99.90
37108;DHT22;23019;49.300;6.846;2022-11-13T12:06:47;28.20;99.90
37108;DHT22;23019;49.300;6.846;2022-11-13T12:09:29;28.00;99.90
37108;DHT22;23019;49.300;6.846;2022-11-13T12:12:08;27.80;99.90
37108;DHT22;23019;49.300;6.846;2022-11-13T12:14:41;29.30;99.90
37108;DHT22;23019;49.300;6.846;2022-11-13T12:19:59;41.00;99.90
37108;DHT22;23019;49.300;6.846;2022-11-13T12:24:56;37.50;99.90
37108;DHT22;23019;49.300;6.846;2022-11-13T12:27:21;37.30;99.90
37108;DHT22;23019;49.300;6.846;2022-11-13T12:30:17;37.00;99.90
37108;DHT22;23019;49.300;6.846;2022-11-13T12:35:20;36.10;99.90
37108;DHT22;23019;49.300;6.846;2022-11-13T12:40:06;35.30;99.90
37108;DHT22;23019;49.300;6.846;2022-11-13T12:42:47;34.90;99.90
37108;DHT22;23019;49.300;6.846;2022-11-13T12:47:26;34.10;99.90
37108;DHT22;23019;49.300;6.846;2022-11-13T12:49:45;33.70;99.90
37108;DHT22;23019;49.300;6.846;2022-11-13T12:52:17;33.30;99.90
37108;DHT22;23019;49.300;6.846;2022-11-13T12:54:37;33.00;99.90
37108;DHT22;23019;49.300;6.846;2022-11-13T12:59:35;32.30;99.90
37108;DHT22;23019;49.300;6.846;2022-11-13T13:04:56;31.50;99.90
37108;DHT22;23019;49.300;6.846;2022-11-13T13:15:39;30.20;99.90
37108;DHT22;23019;49.300;6.846;2022-11-13T13:18:12;29.90;99.90
37108;DHT22;23019;49.300;6.846;2022-11-13T13:20:58;29.70;99.90
37108;DHT22;23019;49.300;6.846;2022-11-13T13:23:28;29.40;99.90
37108;DHT22;23019;49.300;6.846;2022-11-13T13:25:47;29.10;99.90
37108;DHT22;23019;49.300;6.846;2022-11-13T13:30:27;28.70;99.90
37108;DHT22;23019;49.300;6.846;2022-11-13T13:33:10;28.40;99.90
37108;DHT22;23019;49.300;6.846;2022-11-13T13:36:01;28.20;99.90
37108;DHT22;23019;49.300;6.846;2022-11-13T13:38:31;28.00;99.90
37108;DHT22;23019;49.300;6.846;2022-11-13T13:46:32;27.30;99.90
37108;DHT22;23019;49.300;6.846;2022-11-13T13:48:54;27.10;99.90
37108;DHT22;23019;49.300;6.846;2022-11-13T13:51:28;26.90;99.90
37108;DHT22;23019;49.300;6.846;2022-11-13T13:53:49;26.70;99.90
37108;DHT22;23019;49.300;6.846;2022-11-13T13:56:11;28.30;99.90
37108;DHT22;23019;49.300;6.846;2022-11-13T13:58:33;35.80;99.90
37108;DHT22;23019;49.300;6.846;2022-11-13T14:01:00;41.30;99.90
37108;DHT22;23019;49.300;6.846;2022-11-13T14:03:21;39.00;99.90
37108;DHT22;23019;49.300;6.846;2022-11-13T14:05:41;37.80;99.90
37108;DHT22;23019;49.300;6.846;2022-11-13T14:08:00;37.60;99.90
37108;DHT22;23019;49.300;6.846;2022-11-13T14:10:27;37.40;99.90
37108;DHT22;23019;49.300;6.846;2022-11-13T14:12:47;37.10;99.90
37108;DHT22;23019;49.300;6.846;2022-11-13T14:15:23;36.70;99.90
37108;DHT22;23019;49.300;6.846;2022-11-13T14:17:43;36.30;99.90
37108;DHT22;23019;49.300;6.846;2022-11-13T14:20:02;35.90;99.90
37108;DHT22;23019;49.300;6.846;2022-11-13T14:22:22;35.50;99.90
37108;DHT22;23019;49.300;6.846;2022-11-13T14:24:48;35.10;99.90
37108;DHT22;23019;49.300;6.846;2022-11-13T14:27:12;34.60;99.90
37108;DHT22;23019;49.300;6.846;2022-11-13T14:29:47;34.30;99.90
37108;DHT22;23019;49.300;6.846;2022-11-13T14:32:29;33.90;99.90
37108;DHT22;23019;49.300;6.846;2022-11-13T14:34:51;33.40;99.90
37108;DHT22;23019;49.300;6.846;2022-11-13T14:37:23;33.10;99.90
37108;DHT22;23019;49.300;6.846;2022-11-13T14:39:45;32.70;99.90
37108;DHT22;23019;49.300;6.846;2022-11-13T14:42:05;32.40;99.90
37108;DHT22;23019;49.300;6.846;2022-11-13T14:44:33;32.10;99.90
37108;DHT22;23019;49.300;6.846;2022-11-13T14:47:01;31.70;99.90
37108;DHT22;23019;49.300;6.846;2022-11-13T14:49:31;31.40;99.90
37108;DHT22;23019;49.300;6.846;2022-11-13T14:51:54;31.10;99.90
37108;DHT22;23019;49.300;6.846;2022-11-13T14:54:29;30.80;99.90
37108;DHT22;23019;49.300;6.846;2022-11-13T14:56:48;30.40;99.90
37108;DHT22;23019;49.300;6.846;2022-11-13T14:59:15;30.20;99.90
37108;DHT22;23019;49.300;6.846;2022-11-13T15:01:35;29.90;99.90
37108;DHT22;23019;49.300;6.846;2022-11-13T15:03:55;29.60;99.90
37108;DHT22;23019;49.300;6.846;2022-11-13T15:06:22;29.40;99.90
37108;DHT22;23019;49.300;6.846;2022-11-13T15:08:42;29.20;99.90
37108;DHT22;23019;49.300;6.846;2022-11-13T15:11:02;28.90;99.90
37108;DHT22;23019;49.300;6.846;2022-11-13T15:13:21;28.70;99.90
37108;DHT22;23019;49.300;6.846;2022-11-13T15:15:40;28.50;99.90
37108;DHT22;23019;49.300;6.846;2022-11-13T15:18:00;28.20;99.90
37108;DHT22;23019;49.300;6.846;2022-11-13T15:20:25;28.10;99.90
37108;DHT22;23019;49.300;6.846;2022-11-13T15:22:45;27.90;99.90
37108;DHT22;23019;49.300;6.846;2022-11-13T15:25:12;27.60;99.90
37108;DHT22;23019;49.300;6.846;2022-11-13T15:27:32;27.50;99.90
37108;DHT22;23019;49.300;6.846;2022-11-13T15:29:53;28.00;99.90
37108;DHT22;23019;49.300;6.846;2022-11-13T15:32:14;34.40;99.90
37108;DHT22;23019;49.300;6.846;2022-11-13T15:34:34;41.20;99.90
37108;DHT22;23019;49.300;6.846;2022-11-13T15:36:53;39.50;99.90
37108;DHT22;23019;49.300;6.846;2022-11-13T15:39:12;37.80;99.90
37108;DHT22;23019;49.300;6.846;2022-11-13T15:41:32;37.50;99.90
37108;DHT22;23019;49.300;6.846;2022-11-13T15:43:53;37.30;99.90
37108;DHT22;23019;49.300;6.846;2022-11-13T15:46:14;37.00;99.90
37108;DHT22;23019;49.300;6.846;2022-11-13T15:48:35;36.70;99.90
37108;DHT22;23019;49.300;6.846;2022-11-13T15:50:54;36.30;99.90
37108;DHT22;23019;49.300;6.846;2022-11-13T15:53:14;35.90;99.90
37108;DHT22;23019;49.300;6.846;2022-11-13T15:55:33;35.50;99.90
37108;DHT22;23019;49.300;6.846;2022-11-13T15:57:53;35.10;99.90
37108;DHT22;23019;49.300;6.846;2022-11-13T16:00:21;34.70;99.90
37108;DHT22;23019;49.300;6.846;2022-11-13T16:02:43;34.30;99.90
37108;DHT22;23019;49.300;6.846;2022-11-13T16:05:02;33.90;99.90